Aeroporto :
LOGIN :

Iscrizione | Disclaimer

   EN    FR    IT 

 










Sommario :    VFR   VFR Marginale   IFR   IFR Intensivo   IFR Molto Intensivo
Visibilità : 
Base nubi : 
>= 8 km
>= 3000ft
5 / 8 km
1000 / 3000 ft
1500m / 5 km
500 / 1000 ft
800 / 1500m
200 / 500 ft
< 800m
< 200 ft
Simboli :   Temporali  Nebbia  Neve Forte  Precipitazioni Forti  Vento > 20 kt
SIGMETs :   Varie  Temporali  Ghiacco  Turbolenza  Onda orograficha  Ceneri Vulcaniche






- Altitudine del aeroporto : 17 ft
- Codice IATA : GRQ


EHGG - Groningen Eelde

ULTIMO METAR :
  • 310755Z AUTO 08011KT 040V120 9999 NSC 17/04 Q1026 NOSIG

METARs OBSOLETI :
  • 310725Z AUTO 08007KT 030V130 9999 NSC 17/05 Q1026 NOSIG
  • 310655Z AUTO 10005KT 060V130 9999 NSC 16/06 Q1026 NOSIG
  • 310625Z AUTO 10005KT 070V130 9999 NSC 15/07 Q1026 NOSIG
  • 310555Z AUTO 09004KT 060V120 9999 NSC 14/07 Q1025 NOSIG
  • 310525Z AUTO 09004KT 9999 NSC 13/07 Q1025 NOSIG

TAF TAF EHGG
Valido dal 31 a 06 ore il 01 a 12 ore UTC


310520Z 3106/0112 06006KT CAVOK
BECMG 3107/3110 06012G22KT
BECMG 3117/3120 06007KT
BECMG 0107/0110 09011KT



MetMap, La meteo Aeronautica in un colpo d'occhio ! - Copyright ORBIFLY Dicembre 2007 - Disclaimer

ORBIFLY MET'MAP TEAM :

Programmazione e sviluppo : Alexandra Zaïnal
Concezione : Baudouin d'Aumeries
Aiuto per la programmazione : Marc-Olivier Méhu
Supporto tecnico e logistico : Manuel Goepfert
Aiuto per la traduzione : Arnaldo La Scala

Contatto : metmap@orbifly.com




FONTI E CREDITI :

   NOAA